Alps, New York
Current Conditions -  °F | °C
As of 1:51 PM on Friday 24 Oct 2014 (Local Time) from KALB Reporting Station
Drizzle Drizzle  
Wind Chill: 47°   Ceiling: 1700
Heat Index: 49°   Visibility: 7mi
Dew Point: 46°   Wind: 6mph
Humidity: 90%   Direction: 30°NNE
Pressure: 29.81"   Gusts: NA
Location:  42.6497°N, 73.5273°W
Report Text: KALB 241751Z 03005KT 7SM -DZ SCT005 BKN017 OVC025 09/08 A2981 RMK AO2 DZE1656B13E26B45 SLP097 VIS NW 2 1/2 P0000 60013 T00940078 10094 20072 58016 $
Loading
Personal Weather Stations






























Interactive Weather Map
Tropical Storm Tracking
New forecast layout! Learn more

10-Day Weather Forecast

Advertisements
Track Severe Weather on mobile